createdAt,value
2023-04-07T00:00:44.986Z,0.00
2023-04-07T00:01:45.014Z,0.00
2023-04-07T00:02:45.101Z,0.00
2023-04-07T00:03:45.080Z,0.00
2023-04-07T00:04:44.997Z,0.00
2023-04-07T00:05:44.957Z,0.00
2023-04-07T00:06:44.902Z,0.00
2023-04-07T00:07:55.054Z,0.00
2023-04-07T00:08:45.874Z,0.00
2023-04-07T00:09:45.304Z,0.00
2023-04-07T00:10:44.857Z,0.00
2023-04-07T00:11:45.386Z,0.00
2023-04-07T00:12:44.845Z,0.00
2023-04-07T00:13:44.826Z,0.00
2023-04-07T00:14:44.858Z,0.00
2023-04-07T00:15:44.833Z,0.00
2023-04-07T00:16:44.791Z,0.00
2023-04-07T00:17:44.840Z,0.00
2023-04-07T00:18:44.749Z,0.00
2023-04-07T00:19:44.823Z,0.00
2023-04-07T00:20:44.731Z,0.00
2023-04-07T00:21:44.718Z,0.00
2023-04-07T00:22:44.694Z,0.00
2023-04-07T00:23:44.697Z,0.00
2023-04-07T00:24:44.708Z,0.00
2023-04-07T00:25:44.673Z,0.00
2023-04-07T00:26:44.657Z,0.00
2023-04-07T00:27:45.468Z,0.00
2023-04-07T00:28:44.662Z,0.00
2023-04-07T00:29:44.643Z,0.00
2023-04-07T00:30:44.600Z,0.00
2023-04-07T00:31:44.708Z,0.00
2023-04-07T00:32:45.536Z,0.00
2023-04-07T00:33:44.578Z,0.00
2023-04-07T00:34:44.581Z,0.00
2023-04-07T00:35:44.569Z,0.00
2023-04-07T00:36:44.517Z,0.00
2023-04-07T00:37:44.535Z,0.00
2023-04-07T00:38:44.493Z,0.00
2023-04-07T00:39:44.556Z,0.00
2023-04-07T00:40:44.474Z,0.00
2023-04-07T00:41:44.549Z,0.00
2023-04-07T00:42:44.606Z,0.00
2023-04-07T00:43:44.452Z,0.00
2023-04-07T00:44:44.467Z,0.00
2023-04-07T00:45:44.404Z,0.00
2023-04-07T00:46:44.431Z,0.00
2023-04-07T00:47:44.425Z,0.00
2023-04-07T00:48:44.358Z,0.00
2023-04-07T00:49:44.403Z,0.00
2023-04-07T00:50:44.348Z,0.00
2023-04-07T00:51:44.337Z,0.00
2023-04-07T00:52:44.317Z,0.00
2023-04-07T00:53:44.304Z,0.00
2023-04-07T00:54:44.317Z,0.00
2023-04-07T00:55:44.274Z,0.00
2023-04-07T00:56:44.253Z,0.00
2023-04-07T00:57:44.263Z,0.00
2023-04-07T00:58:45.057Z,0.00
2023-04-07T00:59:44.262Z,0.00
2023-04-07T01:00:44.203Z,0.00
2023-04-07T01:01:44.290Z,0.00
2023-04-07T01:02:45.295Z,0.00
2023-04-07T01:03:44.449Z,0.00
2023-04-07T01:04:44.284Z,0.00
2023-04-07T01:05:44.161Z,0.00
2023-04-07T01:06:44.156Z,0.00
2023-04-07T01:07:44.118Z,0.00
2023-04-07T01:08:44.102Z,0.00
2023-04-07T01:09:44.128Z,0.00
2023-04-07T01:10:44.066Z,0.00
2023-04-07T01:11:44.053Z,0.00
2023-04-07T01:12:44.062Z,0.00
2023-04-07T01:13:44.024Z,0.00
2023-04-07T01:14:44.057Z,0.00
2023-04-07T01:15:44.107Z,0.00
2023-04-07T01:16:44.009Z,0.00
2023-04-07T01:17:44.055Z,0.00
2023-04-07T01:18:43.967Z,0.00
2023-04-07T01:19:43.976Z,0.00
2023-04-07T01:20:43.953Z,0.00
2023-04-07T01:21:43.937Z,0.00
2023-04-07T01:22:43.915Z,0.00
2023-04-07T01:23:43.895Z,0.00
2023-04-07T01:24:43.942Z,0.00
2023-04-07T01:25:43.873Z,0.00
2023-04-07T01:26:43.880Z,0.00
2023-04-07T01:27:43.862Z,0.00
2023-04-07T01:28:43.851Z,0.00
2023-04-07T01:29:43.857Z,0.00
2023-04-07T01:30:43.814Z,0.00
2023-04-07T01:31:43.884Z,0.00
2023-04-07T01:32:43.830Z,0.00
2023-04-07T01:33:43.784Z,0.00
2023-04-07T01:34:43.787Z,0.00
2023-04-07T01:35:43.730Z,0.00
2023-04-07T01:36:43.768Z,0.00
2023-04-07T01:37:43.718Z,0.00
2023-04-07T01:38:43.742Z,0.00
2023-04-07T01:39:43.718Z,0.00
2023-04-07T01:40:43.702Z,0.00
2023-04-07T01:41:43.670Z,0.00
2023-04-07T01:42:43.668Z,0.00
2023-04-07T01:43:45.131Z,0.00
2023-04-07T01:44:44.110Z,0.00
2023-04-07T01:45:43.619Z,0.00
2023-04-07T01:46:43.774Z,0.00
2023-04-07T01:47:43.590Z,0.00
2023-04-07T01:48:43.577Z,0.00
2023-04-07T01:49:43.597Z,0.00
2023-04-07T01:50:43.558Z,0.00
2023-04-07T01:51:43.534Z,0.00
2023-04-07T01:52:43.539Z,0.00
2023-04-07T01:53:43.533Z,0.00
2023-04-07T01:54:43.524Z,0.00
2023-04-07T01:55:43.486Z,0.00
2023-04-07T01:56:43.478Z,0.00
2023-04-07T01:57:43.465Z,0.00
2023-04-07T01:58:43.499Z,0.00
2023-04-07T01:59:43.529Z,0.00
2023-04-07T02:00:43.505Z,0.00
2023-04-07T02:01:43.545Z,0.00
2023-04-07T02:02:43.570Z,0.00
2023-04-07T02:03:43.453Z,0.00
2023-04-07T02:04:43.405Z,0.00
2023-04-07T02:05:43.365Z,0.00
2023-04-07T02:06:43.347Z,0.00
2023-04-07T02:07:43.346Z,0.00
2023-04-07T02:08:43.331Z,0.00
2023-04-07T02:09:43.350Z,0.00
2023-04-07T02:10:43.295Z,0.00
2023-04-07T02:11:43.280Z,0.00
2023-04-07T02:12:43.283Z,0.00
2023-04-07T02:13:43.255Z,0.00
2023-04-07T02:14:43.306Z,0.00
2023-04-07T02:15:44.059Z,0.00
2023-04-07T02:16:43.241Z,0.00
2023-04-07T02:17:43.246Z,0.00
2023-04-07T02:18:43.195Z,0.00
2023-04-07T02:19:43.196Z,0.00
2023-04-07T02:20:43.198Z,0.00
2023-04-07T02:21:43.156Z,0.00
2023-04-07T02:22:43.163Z,0.00
2023-04-07T02:23:43.130Z,0.00
2023-04-07T02:24:43.113Z,0.00
2023-04-07T02:25:43.128Z,0.00
2023-04-07T02:26:43.108Z,0.00
2023-04-07T02:27:43.074Z,0.00
2023-04-07T02:28:43.063Z,0.00
2023-04-07T02:29:43.042Z,0.00
2023-04-07T02:30:43.061Z,0.00
2023-04-07T02:31:43.100Z,0.00
2023-04-07T02:32:43.114Z,0.00
2023-04-07T02:33:42.996Z,0.00
2023-04-07T02:34:43.009Z,0.00
2023-04-07T02:35:42.992Z,0.00
2023-04-07T02:36:43.009Z,0.00
2023-04-07T02:37:42.958Z,0.00
2023-04-07T02:38:42.922Z,0.00
2023-04-07T02:39:42.928Z,0.00
2023-04-07T02:40:42.934Z,0.00
2023-04-07T02:41:42.895Z,0.00
2023-04-07T02:42:42.881Z,0.00
2023-04-07T02:43:42.862Z,0.00
2023-04-07T02:44:42.867Z,0.00
2023-04-07T02:45:42.885Z,0.00
2023-04-07T02:46:42.827Z,0.00
2023-04-07T02:47:42.910Z,0.00
2023-04-07T02:48:42.822Z,0.00
2023-04-07T02:49:42.780Z,0.00
2023-04-07T02:50:42.830Z,0.00
2023-04-07T02:51:42.772Z,0.00
2023-04-07T02:52:42.752Z,0.00
2023-04-07T02:53:42.749Z,0.00
2023-04-07T02:54:42.753Z,0.00
2023-04-07T02:55:42.766Z,0.00
2023-04-07T02:56:42.699Z,0.00
2023-04-07T02:57:42.683Z,0.00
2023-04-07T02:58:43.425Z,0.00
2023-04-07T02:59:42.656Z,0.00
2023-04-07T03:00:42.675Z,0.00
2023-04-07T03:01:43.299Z,0.00
2023-04-07T03:02:42.765Z,0.00
2023-04-07T03:03:42.752Z,0.00
2023-04-07T03:04:42.592Z,0.00
2023-04-07T03:05:42.628Z,0.00
2023-04-07T03:06:42.578Z,0.00
2023-04-07T03:07:42.565Z,0.00
2023-04-07T03:08:42.540Z,0.00
2023-04-07T03:09:42.528Z,0.00
2023-04-07T03:10:42.546Z,0.00
2023-04-07T03:11:43.208Z,0.00
2023-04-07T03:12:42.488Z,0.00
2023-04-07T03:13:42.474Z,0.00
2023-04-07T03:14:42.452Z,0.00
2023-04-07T03:15:42.485Z,0.00
2023-04-07T03:16:42.466Z,0.00
2023-04-07T03:17:42.468Z,0.00
2023-04-07T03:18:42.413Z,0.00
2023-04-07T03:19:42.396Z,0.00
2023-04-07T03:20:42.409Z,0.00
2023-04-07T03:21:42.374Z,0.00
2023-04-07T03:22:42.355Z,0.00
2023-04-07T03:23:42.348Z,0.00
2023-04-07T03:24:42.336Z,0.00
2023-04-07T03:25:42.362Z,0.00
2023-04-07T03:26:42.299Z,0.00
2023-04-07T03:27:42.305Z,0.00
2023-04-07T03:28:42.273Z,0.00
2023-04-07T03:29:42.272Z,0.00
2023-04-07T03:30:42.284Z,0.00
2023-04-07T03:31:42.264Z,0.00
2023-04-07T03:32:42.962Z,0.00
2023-04-07T03:33:42.220Z,0.00
2023-04-07T03:34:42.209Z,0.00
2023-04-07T03:35:42.302Z,0.00
2023-04-07T03:36:42.178Z,0.00
2023-04-07T03:37:42.173Z,0.00
2023-04-07T03:38:42.157Z,0.00
2023-04-07T03:39:42.205Z,0.00
2023-04-07T03:40:42.162Z,0.00
2023-04-07T03:41:42.111Z,0.00
2023-04-07T03:42:42.096Z,0.00
2023-04-07T03:43:42.085Z,0.00
2023-04-07T03:44:42.104Z,0.00
2023-04-07T03:45:42.103Z,0.00
2023-04-07T03:46:42.200Z,0.00
2023-04-07T03:47:42.068Z,0.00
2023-04-07T03:48:42.032Z,0.00
2023-04-07T03:49:42.020Z,0.00
2023-04-07T03:50:42.021Z,0.00
2023-04-07T03:51:42.014Z,0.00
2023-04-07T03:52:41.975Z,0.00
2023-04-07T03:53:41.974Z,0.00
2023-04-07T03:54:41.962Z,0.00
2023-04-07T03:55:41.971Z,0.00
2023-04-07T03:56:41.926Z,0.00
2023-04-07T03:57:41.907Z,0.00
2023-04-07T03:58:41.896Z,0.00
2023-04-07T03:59:41.907Z,0.00
2023-04-07T04:00:41.893Z,0.00
2023-04-07T04:01:41.896Z,0.00
2023-04-07T04:02:41.951Z,0.00
2023-04-07T04:03:41.969Z,0.00
2023-04-07T04:04:41.856Z,0.00
2023-04-07T04:05:41.847Z,0.00
2023-04-07T04:06:41.794Z,0.00
2023-04-07T04:07:41.818Z,0.00
2023-04-07T04:08:41.790Z,0.00
2023-04-07T04:09:41.764Z,0.00
2023-04-07T04:10:41.757Z,0.00
2023-04-07T04:11:41.736Z,0.00
2023-04-07T04:12:41.724Z,0.00
2023-04-07T04:13:41.677Z,1.00
2023-04-07T04:14:41.769Z,0.00
2023-04-07T04:15:41.787Z,0.00
2023-04-07T04:16:41.658Z,0.00
2023-04-07T04:17:41.714Z,1.00
2023-04-07T04:18:42.488Z,1.00
2023-04-07T04:19:41.577Z,1.00
2023-04-07T04:20:41.659Z,0.00
2023-04-07T04:21:41.604Z,0.00
2023-04-07T04:22:41.540Z,2.00
2023-04-07T04:23:41.532Z,1.00
2023-04-07T04:24:41.508Z,1.00
2023-04-07T04:25:41.540Z,2.00
2023-04-07T04:26:41.514Z,1.00
2023-04-07T04:27:41.486Z,2.00
2023-04-07T04:28:41.451Z,7.00
2023-04-07T04:29:41.444Z,6.00
2023-04-07T04:30:41.884Z,4.00
2023-04-07T04:31:41.478Z,2.00
2023-04-07T04:32:41.544Z,3.00
2023-04-07T04:33:41.409Z,8.00
2023-04-07T04:34:41.480Z,7.00
2023-04-07T04:35:41.686Z,10.00
2023-04-07T04:36:41.459Z,13.00
2023-04-07T04:37:41.348Z,12.00
2023-04-07T04:38:41.320Z,11.00
2023-04-07T04:39:41.310Z,19.00
2023-04-07T04:40:41.569Z,19.00
2023-04-07T04:41:41.462Z,17.00
2023-04-07T04:42:41.268Z,22.00
2023-04-07T04:43:42.528Z,26.00
2023-04-07T04:44:41.311Z,27.00
2023-04-07T04:45:41.286Z,27.00
2023-04-07T04:46:41.384Z,30.00
2023-04-07T04:47:41.373Z,28.00
2023-04-07T04:48:41.201Z,35.00
2023-04-07T04:49:42.077Z,37.00
2023-04-07T04:50:41.346Z,35.00
2023-04-07T04:51:41.185Z,30.00
2023-04-07T04:52:41.316Z,34.00
2023-04-07T04:53:41.351Z,45.00
2023-04-07T04:54:41.262Z,58.00
2023-04-07T04:55:41.277Z,73.00
2023-04-07T04:56:41.295Z,85.00
2023-04-07T04:57:41.173Z,95.00
2023-04-07T04:58:41.056Z,106.00
2023-04-07T04:59:41.281Z,144.00
2023-04-07T05:00:41.100Z,161.00
2023-04-07T05:01:42.174Z,149.00
2023-04-07T05:02:41.145Z,147.00
2023-04-07T05:03:41.348Z,158.00
2023-04-07T05:04:42.089Z,167.00
2023-04-07T05:05:41.813Z,196.00
2023-04-07T05:06:40.962Z,222.00
2023-04-07T05:07:40.964Z,226.00
2023-04-07T05:08:40.958Z,226.00
2023-04-07T05:09:40.927Z,248.00
2023-04-07T05:10:40.941Z,324.00
2023-04-07T05:11:40.988Z,354.00
2023-04-07T05:12:40.895Z,345.00
2023-04-07T05:13:40.870Z,364.00
2023-04-07T05:14:40.854Z,387.00
2023-04-07T05:15:40.877Z,402.00
2023-04-07T05:16:40.927Z,430.00
2023-04-07T05:17:40.877Z,425.00
2023-04-07T05:18:40.866Z,430.00
2023-04-07T05:19:40.800Z,438.00
2023-04-07T05:20:40.802Z,453.00
2023-04-07T05:21:40.783Z,451.00
2023-04-07T05:22:40.752Z,463.00
2023-04-07T05:23:40.749Z,485.00
2023-04-07T05:24:40.744Z,513.00
2023-04-07T05:25:40.742Z,540.00
2023-04-07T05:26:40.734Z,555.00
2023-04-07T05:27:40.710Z,576.00
2023-04-07T05:28:40.681Z,555.00
2023-04-07T05:29:40.680Z,516.00
2023-04-07T05:30:40.683Z,490.00
2023-04-07T05:31:40.701Z,417.00
2023-04-07T05:32:40.641Z,436.00
2023-04-07T05:33:40.625Z,420.00
2023-04-07T05:34:40.626Z,483.00
2023-04-07T05:35:41.545Z,531.00
2023-04-07T05:36:40.593Z,574.00
2023-04-07T05:37:40.582Z,574.00
2023-04-07T05:38:40.552Z,590.00
2023-04-07T05:39:40.541Z,610.00
2023-04-07T05:40:40.515Z,599.00
2023-04-07T05:41:40.544Z,540.00
2023-04-07T05:42:40.509Z,514.00
2023-04-07T05:43:40.485Z,557.00
2023-04-07T05:44:40.680Z,625.00
2023-04-07T05:45:40.483Z,693.00
2023-04-07T05:46:40.646Z,789.00
2023-04-07T05:47:40.623Z,870.00
2023-04-07T05:48:40.560Z,940.00
2023-04-07T05:49:40.415Z,952.00
2023-04-07T05:50:40.510Z,1067.00
2023-04-07T05:51:40.483Z,1126.00
2023-04-07T05:52:40.511Z,1121.00
2023-04-07T05:53:40.385Z,1131.00
2023-04-07T05:54:40.603Z,1091.00
2023-04-07T05:55:40.415Z,1061.00
2023-04-07T05:56:40.421Z,1005.00
2023-04-07T05:57:40.318Z,948.00
2023-04-07T05:58:40.477Z,891.00
2023-04-07T05:59:40.492Z,868.00
2023-04-07T06:00:40.513Z,807.00
2023-04-07T06:01:40.386Z,840.00
2023-04-07T06:02:40.396Z,813.00
2023-04-07T06:03:40.673Z,771.00
2023-04-07T06:04:40.285Z,794.00
2023-04-07T06:05:40.362Z,828.00
2023-04-07T06:06:40.620Z,878.00
2023-04-07T06:07:43.095Z,964.00
2023-04-07T06:08:40.315Z,937.00
2023-04-07T06:09:40.183Z,886.00
2023-04-07T06:10:40.823Z,877.00
2023-04-07T06:11:40.851Z,834.00
2023-04-07T06:12:40.117Z,752.00
2023-04-07T06:13:40.091Z,692.00
2023-04-07T06:14:40.230Z,878.00
2023-04-07T06:15:40.081Z,835.00
2023-04-07T06:16:40.158Z,930.00
2023-04-07T06:17:40.088Z,1058.00
2023-04-07T06:18:40.036Z,1290.00
2023-04-07T06:19:40.010Z,1488.00
2023-04-07T06:20:40.758Z,1512.00
2023-04-07T06:21:40.918Z,1507.00
2023-04-07T06:22:39.990Z,1440.00
2023-04-07T06:23:39.966Z,1338.00
2023-04-07T06:24:39.960Z,1215.00
2023-04-07T06:25:39.959Z,1228.00
2023-04-07T06:26:39.980Z,1188.00
2023-04-07T06:27:40.874Z,1189.00
2023-04-07T06:28:39.922Z,1161.00
2023-04-07T06:29:39.893Z,1057.00
2023-04-07T06:30:39.906Z,1117.00
2023-04-07T06:31:39.899Z,1074.00
2023-04-07T06:32:39.848Z,1135.00
2023-04-07T06:33:39.843Z,1030.00
2023-04-07T06:34:39.835Z,969.00
2023-04-07T06:35:40.179Z,980.00
2023-04-07T06:36:40.242Z,1271.00
2023-04-07T06:37:39.806Z,1494.00
2023-04-07T06:38:40.287Z,1983.00
2023-04-07T06:39:39.769Z,2057.00
2023-04-07T06:40:39.817Z,2128.00
2023-04-07T06:41:40.112Z,2238.00
2023-04-07T06:42:39.729Z,2138.00
2023-04-07T06:43:39.880Z,2200.00
2023-04-07T06:44:39.936Z,2082.00
2023-04-07T06:45:39.702Z,2224.00
2023-04-07T06:46:40.631Z,2366.00
2023-04-07T06:47:39.805Z,2305.00
2023-04-07T06:48:39.721Z,2190.00
2023-04-07T06:49:39.628Z,2004.00
2023-04-07T06:50:39.888Z,1909.00
2023-04-07T06:51:40.599Z,1961.00
2023-04-07T06:52:40.683Z,1936.00
2023-04-07T06:53:40.406Z,1742.00
2023-04-07T06:54:39.765Z,1973.00
2023-04-07T06:55:39.634Z,1988.00
2023-04-07T06:56:39.586Z,2152.00
2023-04-07T06:57:39.635Z,2435.00
2023-04-07T06:58:39.783Z,2281.00
2023-04-07T06:59:40.751Z,2236.00
2023-04-07T07:00:39.746Z,2260.00
2023-04-07T07:01:40.064Z,2290.00
2023-04-07T07:02:39.700Z,2259.00
2023-04-07T07:03:39.795Z,2260.00
2023-04-07T07:04:39.434Z,2345.00
2023-04-07T07:05:39.473Z,2125.00
2023-04-07T07:06:39.921Z,2100.00
2023-04-07T07:07:40.352Z,2096.00
2023-04-07T07:08:39.437Z,2100.00
2023-04-07T07:09:39.366Z,2131.00
2023-04-07T07:10:39.354Z,2271.00
2023-04-07T07:11:39.400Z,2224.00
2023-04-07T07:12:39.386Z,2241.00
2023-04-07T07:13:39.343Z,1929.00
2023-04-07T07:14:39.333Z,1951.00
2023-04-07T07:15:39.326Z,2307.00
2023-04-07T07:16:39.466Z,2394.00
2023-04-07T07:17:39.401Z,2301.00
2023-04-07T07:18:39.247Z,1729.00
2023-04-07T07:19:39.254Z,2584.00
2023-04-07T07:20:39.227Z,2331.00
2023-04-07T07:21:39.237Z,3258.00
2023-04-07T07:22:39.214Z,2759.00
2023-04-07T07:23:39.843Z,2810.00
2023-04-07T07:24:39.185Z,2645.00
2023-04-07T07:25:39.351Z,3902.00
2023-04-07T07:26:39.195Z,3422.00
2023-04-07T07:27:39.244Z,3189.00
2023-04-07T07:28:39.180Z,3299.00
2023-04-07T07:29:39.100Z,3428.00
2023-04-07T07:30:39.142Z,3066.00
2023-04-07T07:31:39.307Z,2661.00
2023-04-07T07:32:43.330Z,2876.00
2023-04-07T07:33:39.088Z,2926.00
2023-04-07T07:34:39.161Z,2487.00
2023-04-07T07:35:39.022Z,2737.00
2023-04-07T07:36:39.148Z,2633.00
2023-04-07T07:37:39.764Z,2358.00
2023-04-07T07:38:39.993Z,2845.00
2023-04-07T07:39:39.823Z,2706.00
2023-04-07T07:40:38.968Z,2355.00
2023-04-07T07:41:39.047Z,2105.00
2023-04-07T07:42:38.942Z,2473.00
2023-04-07T07:43:38.973Z,2597.00
2023-04-07T07:44:39.070Z,2560.00
2023-04-07T07:45:38.899Z,2309.00
2023-04-07T07:46:39.012Z,1813.00
2023-04-07T07:47:38.940Z,1951.00
2023-04-07T07:48:38.862Z,2015.00
2023-04-07T07:49:38.845Z,1837.00
2023-04-07T07:50:38.843Z,2167.00
2023-04-07T07:51:38.821Z,2093.00
2023-04-07T07:52:38.855Z,1988.00
2023-04-07T07:53:39.080Z,1880.00
2023-04-07T07:54:38.926Z,2057.00
2023-04-07T07:55:39.161Z,2586.00
2023-04-07T07:56:38.781Z,2685.00
2023-04-07T07:57:38.739Z,2537.00
2023-04-07T07:58:38.738Z,2215.00
2023-04-07T07:59:38.711Z,2541.00
2023-04-07T08:00:38.705Z,2664.00
2023-04-07T08:01:38.728Z,2742.00
2023-04-07T08:02:38.734Z,2776.00
2023-04-07T08:03:38.806Z,2630.00
2023-04-07T08:04:38.705Z,2710.00
2023-04-07T08:05:38.647Z,2388.00
2023-04-07T08:06:38.657Z,2014.00
2023-04-07T08:07:38.606Z,1822.00
2023-04-07T08:08:38.901Z,1570.00
2023-04-07T08:09:39.510Z,1500.00
2023-04-07T08:10:38.594Z,1423.00
2023-04-07T08:11:38.594Z,1382.00
2023-04-07T08:12:38.543Z,1445.00
2023-04-07T08:13:38.553Z,1335.00
2023-04-07T08:14:39.344Z,1318.00
2023-04-07T08:15:38.509Z,1300.00
2023-04-07T08:16:38.736Z,1160.00
2023-04-07T08:17:38.506Z,1345.00
2023-04-07T08:18:38.481Z,1486.00
2023-04-07T08:19:38.449Z,1863.00
2023-04-07T08:20:38.445Z,1786.00
2023-04-07T08:21:38.468Z,1910.00
2023-04-07T08:22:38.421Z,1784.00
2023-04-07T08:23:39.190Z,1776.00
2023-04-07T08:24:39.355Z,1545.00
2023-04-07T08:25:38.930Z,1536.00
2023-04-07T08:26:38.360Z,1814.00
2023-04-07T08:27:38.375Z,1712.00
2023-04-07T08:28:38.340Z,1553.00
2023-04-07T08:29:38.339Z,1578.00
2023-04-07T08:30:38.319Z,1860.00
2023-04-07T08:31:38.370Z,2213.00
2023-04-07T08:32:38.352Z,1987.00
2023-04-07T08:33:38.276Z,1773.00
2023-04-07T08:34:38.290Z,1768.00
2023-04-07T08:35:38.419Z,2215.00
2023-04-07T08:36:39.017Z,2030.00
2023-04-07T08:37:39.767Z,1976.00
2023-04-07T08:38:38.217Z,2157.00
2023-04-07T08:39:38.237Z,2065.00
2023-04-07T08:40:38.974Z,2166.00
2023-04-07T08:41:38.298Z,2164.00
2023-04-07T08:42:38.194Z,2051.00
2023-04-07T08:43:38.144Z,2303.00
2023-04-07T08:44:38.138Z,2337.00
2023-04-07T08:45:38.116Z,2079.00
2023-04-07T08:46:38.143Z,2161.00
2023-04-07T08:47:38.156Z,2444.00
2023-04-07T08:48:38.110Z,2607.00
2023-04-07T08:49:39.049Z,2944.00
2023-04-07T08:50:38.154Z,3106.00
2023-04-07T08:51:38.169Z,2685.00
2023-04-07T08:52:38.335Z,2789.00
2023-04-07T08:53:38.004Z,2769.00
2023-04-07T08:54:38.118Z,2752.00
2023-04-07T08:55:42.997Z,2510.00
2023-04-07T08:56:37.977Z,2618.00
2023-04-07T08:57:38.001Z,3301.00
2023-04-07T08:58:38.136Z,3374.00
2023-04-07T08:59:37.934Z,3288.00
2023-04-07T09:00:38.797Z,3290.00
2023-04-07T09:01:38.965Z,3499.00
2023-04-07T09:02:38.145Z,3630.00
2023-04-07T09:03:38.082Z,3615.00
2023-04-07T09:04:37.887Z,3574.00
2023-04-07T09:05:38.214Z,3544.00
2023-04-07T09:06:37.846Z,3503.00
2023-04-07T09:07:37.855Z,3577.00
2023-04-07T09:08:37.814Z,3576.00
2023-04-07T09:09:37.974Z,3707.00
2023-04-07T09:10:38.024Z,3785.00
2023-04-07T09:11:37.776Z,3728.00
2023-04-07T09:12:38.122Z,3848.00
2023-04-07T09:13:37.760Z,3995.00
2023-04-07T09:14:37.743Z,3951.00
2023-04-07T09:15:38.907Z,3855.00
2023-04-07T09:16:37.801Z,3858.00
2023-04-07T09:17:37.752Z,3750.00
2023-04-07T09:18:37.896Z,3670.00
2023-04-07T09:19:37.693Z,3697.00
2023-04-07T09:20:37.659Z,3627.00
2023-04-07T09:21:37.641Z,3598.00
2023-04-07T09:22:38.032Z,3659.00
2023-04-07T09:23:37.651Z,3648.00
2023-04-07T09:24:37.605Z,3588.00
2023-04-07T09:25:37.592Z,3688.00
2023-04-07T09:26:37.918Z,3760.00
2023-04-07T09:27:37.601Z,3713.00
2023-04-07T09:28:37.554Z,3694.00
2023-04-07T09:29:37.533Z,3719.00
2023-04-07T09:30:37.534Z,3670.00
2023-04-07T09:31:37.518Z,3624.00
2023-04-07T09:32:37.550Z,3712.00
2023-04-07T09:33:37.480Z,3743.00
2023-04-07T09:34:39.694Z,3674.00
2023-04-07T09:35:37.483Z,3597.00
2023-04-07T09:36:37.456Z,3649.00
2023-04-07T09:37:37.486Z,3684.00
2023-04-07T09:38:37.425Z,3798.00
2023-04-07T09:39:37.416Z,3726.00
2023-04-07T09:40:37.554Z,3776.00
2023-04-07T09:41:38.087Z,3741.00
2023-04-07T09:42:37.512Z,3775.00
2023-04-07T09:43:37.352Z,3861.00
2023-04-07T09:44:37.345Z,3948.00
2023-04-07T09:45:38.099Z,3952.00
2023-04-07T09:46:37.380Z,3883.00
2023-04-07T09:47:37.389Z,3803.00
2023-04-07T09:48:37.295Z,3764.00
2023-04-07T09:49:37.273Z,3521.00
2023-04-07T09:50:37.262Z,3681.00
2023-04-07T09:51:37.262Z,3539.00
2023-04-07T09:52:37.358Z,3348.00
2023-04-07T09:53:37.223Z,3470.00
2023-04-07T09:54:37.215Z,3520.00
2023-04-07T09:55:37.301Z,3403.00
2023-04-07T09:56:37.205Z,3136.00
2023-04-07T09:57:37.585Z,3327.00
2023-04-07T09:58:37.849Z,3556.00
2023-04-07T09:59:37.279Z,3573.00
2023-04-07T10:00:37.323Z,3754.00
2023-04-07T10:01:37.301Z,3252.00
2023-04-07T10:02:37.354Z,4467.00
2023-04-07T10:03:37.297Z,3644.00
2023-04-07T10:04:37.308Z,4382.00
2023-04-07T10:05:37.232Z,4018.00
2023-04-07T10:06:37.225Z,4100.00
2023-04-07T10:07:37.267Z,4112.00
2023-04-07T10:08:37.194Z,4184.00
2023-04-07T10:09:37.123Z,4037.00
2023-04-07T10:10:37.149Z,4013.00
2023-04-07T10:11:37.120Z,3574.00
2023-04-07T10:12:37.561Z,4181.00
2023-04-07T10:13:37.044Z,3713.00
2023-04-07T10:14:38.590Z,3363.00
2023-04-07T10:15:37.067Z,3156.00
2023-04-07T10:16:37.334Z,3123.00
2023-04-07T10:17:37.124Z,3601.00
2023-04-07T10:18:36.984Z,3341.00
2023-04-07T10:19:36.947Z,3529.00
2023-04-07T10:20:36.948Z,3634.00
2023-04-07T10:21:37.038Z,3987.00
2023-04-07T10:22:37.065Z,3607.00
2023-04-07T10:23:37.580Z,2876.00
2023-04-07T10:24:36.898Z,3606.00
2023-04-07T10:25:36.960Z,2885.00
2023-04-07T10:26:38.601Z,3034.00
2023-04-07T10:27:37.484Z,4151.00
2023-04-07T10:28:36.780Z,1430.00
2023-04-07T10:29:36.799Z,2965.00
2023-04-07T10:30:36.747Z,2733.00
2023-04-07T10:31:36.812Z,3855.00
2023-04-07T10:32:36.772Z,3872.00
2023-04-07T10:33:36.720Z,6014.00
2023-04-07T10:34:36.740Z,1904.00
2023-04-07T10:35:36.734Z,4248.00
2023-04-07T10:36:36.679Z,6941.00
2023-04-07T10:37:36.709Z,3291.00
2023-04-07T10:38:36.648Z,5373.00
2023-04-07T10:39:36.629Z,4889.00
2023-04-07T10:40:36.631Z,3630.00
2023-04-07T10:41:36.666Z,3448.00
2023-04-07T10:42:36.619Z,3540.00
2023-04-07T10:43:36.571Z,4189.00
2023-04-07T10:44:36.616Z,3602.00
2023-04-07T10:45:36.549Z,3277.00
2023-04-07T10:46:36.660Z,3422.00
2023-04-07T10:47:36.585Z,3424.00
2023-04-07T10:48:36.527Z,3610.00
2023-04-07T10:49:36.501Z,3445.00
2023-04-07T10:50:36.491Z,3085.00
2023-04-07T10:51:37.419Z,2928.00
2023-04-07T10:52:36.539Z,3095.00
2023-04-07T10:53:36.449Z,3235.00
2023-04-07T10:54:36.564Z,2992.00
2023-04-07T10:55:36.444Z,2686.00
2023-04-07T10:56:36.451Z,1585.00
2023-04-07T10:57:36.956Z,7178.00
2023-04-07T10:58:36.389Z,4521.00
2023-04-07T10:59:36.558Z,4026.00
2023-04-07T11:00:37.185Z,3714.00
2023-04-07T11:01:36.390Z,3809.00
2023-04-07T11:02:37.171Z,3949.00
2023-04-07T11:03:36.535Z,4306.00
2023-04-07T11:04:36.358Z,4305.00
2023-04-07T11:05:36.291Z,4305.00
2023-04-07T11:06:36.273Z,3989.00
2023-04-07T11:07:36.391Z,3612.00
2023-04-07T11:08:36.415Z,5771.00
2023-04-07T11:09:36.230Z,4564.00
2023-04-07T11:10:36.522Z,4348.00
2023-04-07T11:11:36.249Z,3969.00
2023-04-07T11:12:36.200Z,1730.00
2023-04-07T11:13:36.678Z,3205.00
2023-04-07T11:14:36.997Z,8086.00
2023-04-07T11:15:38.566Z,4674.00
2023-04-07T11:16:36.324Z,3801.00
2023-04-07T11:17:36.146Z,3532.00
2023-04-07T11:18:36.337Z,3490.00
2023-04-07T11:19:36.101Z,3535.00
2023-04-07T11:20:36.256Z,3729.00
2023-04-07T11:21:36.073Z,3911.00
2023-04-07T11:22:36.061Z,4067.00
2023-04-07T11:23:36.155Z,4053.00
2023-04-07T11:24:36.198Z,3903.00
2023-04-07T11:25:36.039Z,3876.00
2023-04-07T11:26:36.116Z,3895.00
2023-04-07T11:27:35.989Z,3881.00
2023-04-07T11:28:36.012Z,3688.00
2023-04-07T11:29:36.183Z,3613.00
2023-04-07T11:30:35.960Z,3448.00
2023-04-07T11:31:36.036Z,3295.00
2023-04-07T11:32:36.164Z,3030.00
2023-04-07T11:33:35.973Z,2810.00
2023-04-07T11:34:36.005Z,2642.00
2023-04-07T11:35:36.435Z,2437.00
2023-04-07T11:36:36.822Z,2314.00
2023-04-07T11:37:35.930Z,2178.00
2023-04-07T11:38:35.976Z,2016.00
2023-04-07T11:39:35.942Z,1897.00
2023-04-07T11:40:35.974Z,1996.00
2023-04-07T11:41:35.862Z,2239.00
2023-04-07T11:42:35.802Z,2570.00
2023-04-07T11:43:36.010Z,2666.00
2023-04-07T11:44:35.776Z,2187.00
2023-04-07T11:45:35.951Z,1507.00
2023-04-07T11:46:36.001Z,3642.00
2023-04-07T11:47:35.837Z,3675.00
2023-04-07T11:48:35.908Z,3833.00
2023-04-07T11:49:35.970Z,5927.00
2023-04-07T11:50:35.867Z,5173.00
2023-04-07T11:51:35.738Z,3343.00
2023-04-07T11:52:35.845Z,3188.00
2023-04-07T11:53:35.837Z,2897.00
2023-04-07T11:54:35.637Z,3323.00
2023-04-07T11:55:35.644Z,3381.00
2023-04-07T11:56:35.611Z,3154.00
2023-04-07T11:57:35.672Z,2894.00
2023-04-07T11:58:35.661Z,2806.00
2023-04-07T11:59:35.574Z,2872.00
2023-04-07T12:00:35.563Z,2844.00
2023-04-07T12:01:35.789Z,2829.00
2023-04-07T12:02:35.818Z,2730.00
2023-04-07T12:03:35.824Z,2713.00
2023-04-07T12:04:35.591Z,2626.00
2023-04-07T12:05:35.493Z,3449.00
2023-04-07T12:06:35.587Z,3135.00
2023-04-07T12:07:35.471Z,3255.00
2023-04-07T12:08:35.492Z,3539.00
2023-04-07T12:09:35.518Z,3798.00
2023-04-07T12:10:35.548Z,3896.00
2023-04-07T12:11:35.512Z,4066.00
2023-04-07T12:12:35.404Z,4170.00
2023-04-07T12:13:36.263Z,4420.00
2023-04-07T12:14:35.418Z,4480.00
2023-04-07T12:15:35.647Z,4379.00
2023-04-07T12:16:35.508Z,4248.00
2023-04-07T12:17:35.371Z,4232.00
2023-04-07T12:18:35.469Z,4063.00
2023-04-07T12:19:35.314Z,3894.00
2023-04-07T12:20:37.179Z,3719.00
2023-04-07T12:21:36.364Z,3671.00
2023-04-07T12:22:35.475Z,3604.00
2023-04-07T12:23:35.404Z,3690.00
2023-04-07T12:24:35.345Z,3689.00
2023-04-07T12:25:35.391Z,3674.00
2023-04-07T12:26:35.342Z,3571.00
2023-04-07T12:27:42.629Z,3427.00
2023-04-07T12:28:36.350Z,3517.00
2023-04-07T12:29:35.189Z,3678.00
2023-04-07T12:30:35.205Z,3608.00
2023-04-07T12:31:35.651Z,3401.00
2023-04-07T12:32:35.419Z,3279.00
2023-04-07T12:33:35.158Z,3216.00
2023-04-07T12:34:35.343Z,3431.00